sensor_id;sensor_type;location;lat;lon;timestamp;pressure;altitude;pressure_sealevel;temperature;humidity
30343;BME280;17145;49.902;8.680;'2023-07-30 01:59:28';99440;;;22;49
30343;BME280;17145;49.902;8.680;'2023-07-30 02:01:55';99440;;;21;50
30343;BME280;17145;49.902;8.680;'2023-07-30 02:04:22';99430;;;21;50
30343;BME280;17145;49.902;8.680;'2023-07-30 02:06:50';99430;;;22;50
30343;BME280;17145;49.902;8.680;'2023-07-30 02:09:17';99430;;;21;50
30343;BME280;17145;49.902;8.680;'2023-07-30 02:11:45';99440;;;21;51
30343;BME280;17145;49.902;8.680;'2023-07-30 02:14:12';99440;;;21;51
30343;BME280;17145;49.902;8.680;'2023-07-30 02:16:40';99450;;;21;51
30343;BME280;17145;49.902;8.680;'2023-07-30 02:19:07';99440;;;21;51
30343;BME280;17145;49.902;8.680;'2023-07-30 02:21:35';99440;;;21;51
30343;BME280;17145;49.902;8.680;'2023-07-30 02:24:02';99440;;;21;51
30343;BME280;17145;49.902;8.680;'2023-07-30 02:26:30';99440;;;21;51
30343;BME280;17145;49.902;8.680;'2023-07-30 02:28:57';99440;;;21;51
30343;BME280;17145;49.902;8.680;'2023-07-30 02:31:25';99440;;;21;51
30343;BME280;17145;49.902;8.680;'2023-07-30 02:33:52';99440;;;21;52
30343;BME280;17145;49.902;8.680;'2023-07-30 02:36:20';99450;;;21;51
30343;BME280;17145;49.902;8.680;'2023-07-30 02:38:47';99450;;;21;51
30343;BME280;17145;49.902;8.680;'2023-07-30 02:41:14';99450;;;21;51
30343;BME280;17145;49.902;8.680;'2023-07-30 02:43:42';99460;;;21;51
30343;BME280;17145;49.902;8.680;'2023-07-30 02:46:09';99460;;;21;51
30343;BME280;17145;49.902;8.680;'2023-07-30 02:48:37';99460;;;21;51
30343;BME280;17145;49.902;8.680;'2023-07-30 02:51:04';99470;;;21;51
30343;BME280;17145;49.902;8.680;'2023-07-30 02:53:32';99480;;;21;51
30343;BME280;17145;49.902;8.680;'2023-07-30 02:55:59';99480;;;21;51
30343;BME280;17145;49.902;8.680;'2023-07-30 02:58:27';99480;;;21;51
30343;BME280;17145;49.902;8.680;'2023-07-30 03:00:56';99490;;;21;51
30343;BME280;17145;49.902;8.680;'2023-07-30 03:03:24';99490;;;21;51
30343;BME280;17145;49.902;8.680;'2023-07-30 03:05:52';99500;;;21;51
30343;BME280;17145;49.902;8.680;'2023-07-30 03:08:19';99500;;;21;51
30343;BME280;17145;49.902;8.680;'2023-07-30 03:10:48';99500;;;21;51
30343;BME280;17145;49.902;8.680;'2023-07-30 03:13:16';99500;;;21;51
30343;BME280;17145;49.902;8.680;'2023-07-30 03:15:44';99500;;;21;50
30343;BME280;17145;49.902;8.680;'2023-07-30 03:18:12';99510;;;21;51
30343;BME280;17145;49.902;8.680;'2023-07-30 03:20:40';99510;;;21;51
30343;BME280;17145;49.902;8.680;'2023-07-30 03:23:07';99510;;;21;51
30343;BME280;17145;49.902;8.680;'2023-07-30 03:25:36';99520;;;21;51
30343;BME280;17145;49.902;8.680;'2023-07-30 03:28:08';99520;;;21;51
30343;BME280;17145;49.902;8.680;'2023-07-30 03:30:40';99520;;;21;51
30343;BME280;17145;49.902;8.680;'2023-07-30 03:33:10';99530;;;21;51
30343;BME280;17145;49.902;8.680;'2023-07-30 03:35:41';99520;;;21;51
30343;BME280;17145;49.902;8.680;'2023-07-30 03:38:10';99520;;;21;52
30343;BME280;17145;49.902;8.680;'2023-07-30 03:40:37';99530;;;21;52
30343;BME280;17145;49.902;8.680;'2023-07-30 03:43:04';99530;;;20;52
30343;BME280;17145;49.902;8.680;'2023-07-30 03:45:32';99530;;;20;52
30343;BME280;17145;49.902;8.680;'2023-07-30 03:47:59';99540;;;20;53
30343;BME280;17145;49.902;8.680;'2023-07-30 03:50:26';99530;;;20;53
30343;BME280;17145;49.902;8.680;'2023-07-30 03:52:53';99540;;;20;53
30343;BME280;17145;49.902;8.680;'2023-07-30 03:55:21';99540;;;20;53
30343;BME280;17145;49.902;8.680;'2023-07-30 03:57:48';99540;;;20;53
30343;BME280;17145;49.902;8.680;'2023-07-30 04:00:16';99540;;;20;53
30343;BME280;17145;49.902;8.680;'2023-07-30 04:02:43';99550;;;20;53
30343;BME280;17145;49.902;8.680;'2023-07-30 04:05:11';99550;;;20;53
30343;BME280;17145;49.902;8.680;'2023-07-30 04:07:38';99550;;;21;54
30343;BME280;17145;49.902;8.680;'2023-07-30 04:10:06';99550;;;20;54
30343;BME280;17145;49.902;8.680;'2023-07-30 04:12:34';99550;;;20;54
30343;BME280;17145;49.902;8.680;'2023-07-30 04:15:01';99550;;;20;54
30343;BME280;17145;49.902;8.680;'2023-07-30 04:17:28';99550;;;20;54
30343;BME280;17145;49.902;8.680;'2023-07-30 04:19:55';99550;;;20;54
30343;BME280;17145;49.902;8.680;'2023-07-30 04:22:23';99550;;;20;54
30343;BME280;17145;49.902;8.680;'2023-07-30 04:24:50';99550;;;20;54
30343;BME280;17145;49.902;8.680;'2023-07-30 04:27:18';99560;;;20;54
30343;BME280;17145;49.902;8.680;'2023-07-30 04:29:45';99560;;;20;55
30343;BME280;17145;49.902;8.680;'2023-07-30 04:32:13';99560;;;20;55
30343;BME280;17145;49.902;8.680;'2023-07-30 04:34:40';99560;;;20;55
30343;BME280;17145;49.902;8.680;'2023-07-30 04:37:07';99560;;;20;55
30343;BME280;17145;49.902;8.680;'2023-07-30 04:39:35';99560;;;20;54
30343;BME280;17145;49.902;8.680;'2023-07-30 04:42:02';99560;;;20;55
30343;BME280;17145;49.902;8.680;'2023-07-30 04:44:30';99560;;;20;55
30343;BME280;17145;49.902;8.680;'2023-07-30 04:46:57';99560;;;20;55
30343;BME280;17145;49.902;8.680;'2023-07-30 04:49:25';99560;;;20;55
30343;BME280;17145;49.902;8.680;'2023-07-30 04:51:52';99570;;;20;55
30343;BME280;17145;49.902;8.680;'2023-07-30 04:54:19';99570;;;20;55
30343;BME280;17145;49.902;8.680;'2023-07-30 04:56:47';99580;;;20;56
30343;BME280;17145;49.902;8.680;'2023-07-30 04:59:14';99570;;;20;55
30343;BME280;17145;49.902;8.680;'2023-07-30 05:01:42';99580;;;20;56
30343;BME280;17145;49.902;8.680;'2023-07-30 05:04:09';99580;;;20;56
30343;BME280;17145;49.902;8.680;'2023-07-30 05:06:36';99580;;;20;56
30343;BME280;17145;49.902;8.680;'2023-07-30 05:09:04';99580;;;20;56
30343;BME280;17145;49.902;8.680;'2023-07-30 05:11:31';99580;;;20;56
30343;BME280;17145;49.902;8.680;'2023-07-30 05:13:58';99580;;;20;56
30343;BME280;17145;49.902;8.680;'2023-07-30 05:16:25';99580;;;19;56
30343;BME280;17145;49.902;8.680;'2023-07-30 05:18:53';99580;;;20;56
30343;BME280;17145;49.902;8.680;'2023-07-30 05:21:20';99600;;;20;56
30343;BME280;17145;49.902;8.680;'2023-07-30 05:23:48';99600;;;20;56
30343;BME280;17145;49.902;8.680;'2023-07-30 05:26:15';99600;;;20;56
30343;BME280;17145;49.902;8.680;'2023-07-30 05:28:42';99600;;;20;56
30343;BME280;17145;49.902;8.680;'2023-07-30 05:31:10';99590;;;20;56
30343;BME280;17145;49.902;8.680;'2023-07-30 05:33:37';99580;;;20;56
30343;BME280;17145;49.902;8.680;'2023-07-30 05:36:05';99580;;;20;56
30343;BME280;17145;49.902;8.680;'2023-07-30 05:38:32';99580;;;20;56
30343;BME280;17145;49.902;8.680;'2023-07-30 05:41:00';99560;;;20;56
30343;BME280;17145;49.902;8.680;'2023-07-30 05:43:27';99560;;;20;56
30343;BME280;17145;49.902;8.680;'2023-07-30 05:45:54';99570;;;20;56
30343;BME280;17145;49.902;8.680;'2023-07-30 05:48:22';99570;;;20;56
30343;BME280;17145;49.902;8.680;'2023-07-30 05:50:49';99570;;;20;56
30343;BME280;17145;49.902;8.680;'2023-07-30 05:53:17';99570;;;20;56
30343;BME280;17145;49.902;8.680;'2023-07-30 05:55:44';99580;;;20;56
30343;BME280;17145;49.902;8.680;'2023-07-30 05:58:11';99580;;;20;56
30343;BME280;17145;49.902;8.680;'2023-07-30 06:00:39';99580;;;20;55
30343;BME280;17145;49.902;8.680;'2023-07-30 06:03:06';99580;;;20;55
30343;BME280;17145;49.902;8.680;'2023-07-30 06:05:34';99580;;;20;56
30343;BME280;17145;49.902;8.680;'2023-07-30 06:08:01';99590;;;19;56
30343;BME280;17145;49.902;8.680;'2023-07-30 06:10:29';99590;;;20;56
30343;BME280;17145;49.902;8.680;'2023-07-30 06:12:56';99580;;;20;56
30343;BME280;17145;49.902;8.680;'2023-07-30 06:15:23';99590;;;20;56
30343;BME280;17145;49.902;8.680;'2023-07-30 06:17:50';99590;;;20;56
30343;BME280;17145;49.902;8.680;'2023-07-30 06:20:18';99590;;;20;56
30343;BME280;17145;49.902;8.680;'2023-07-30 06:22:45';99600;;;20;56
30343;BME280;17145;49.902;8.680;'2023-07-30 06:25:15';99600;;;20;56
30343;BME280;17145;49.902;8.680;'2023-07-30 06:27:42';99600;;;20;56
30343;BME280;17145;49.902;8.680;'2023-07-30 06:30:10';99600;;;20;56
30343;BME280;17145;49.902;8.680;'2023-07-30 06:32:38';99610;;;20;56
30343;BME280;17145;49.902;8.680;'2023-07-30 06:35:06';99610;;;20;56
30343;BME280;17145;49.902;8.680;'2023-07-30 06:37:33';99610;;;20;56
30343;BME280;17145;49.902;8.680;'2023-07-30 06:40:00';99610;;;19;56
30343;BME280;17145;49.902;8.680;'2023-07-30 06:42:28';99610;;;20;56
30343;BME280;17145;49.902;8.680;'2023-07-30 06:44:55';99620;;;20;56
30343;BME280;17145;49.902;8.680;'2023-07-30 06:47:23';99630;;;20;56
30343;BME280;17145;49.902;8.680;'2023-07-30 06:49:50';99630;;;20;56
30343;BME280;17145;49.902;8.680;'2023-07-30 06:52:18';99620;;;20;56
30343;BME280;17145;49.902;8.680;'2023-07-30 06:54:45';99610;;;20;56
30343;BME280;17145;49.902;8.680;'2023-07-30 06:57:13';99610;;;20;56
30343;BME280;17145;49.902;8.680;'2023-07-30 06:59:40';99610;;;20;56
30343;BME280;17145;49.902;8.680;'2023-07-30 07:02:08';99620;;;20;56
30343;BME280;17145;49.902;8.680;'2023-07-30 07:04:35';99620;;;20;56
30343;BME280;17145;49.902;8.680;'2023-07-30 07:07:03';99630;;;20;56
30343;BME280;17145;49.902;8.680;'2023-07-30 07:09:30';99620;;;20;56
30343;BME280;17145;49.902;8.680;'2023-07-30 07:11:57';99620;;;20;56
30343;BME280;17145;49.902;8.680;'2023-07-30 07:14:25';99620;;;20;56
30343;BME280;17145;49.902;8.680;'2023-07-30 07:16:52';99620;;;20;56
30343;BME280;17145;49.902;8.680;'2023-07-30 07:19:20';99620;;;20;56
30343;BME280;17145;49.902;8.680;'2023-07-30 07:21:47';99620;;;20;56
30343;BME280;17145;49.902;8.680;'2023-07-30 07:24:15';99610;;;20;56
30343;BME280;17145;49.902;8.680;'2023-07-30 07:26:42';99610;;;20;57
30343;BME280;17145;49.902;8.680;'2023-07-30 07:29:10';99600;;;20;56
30343;BME280;17145;49.902;8.680;'2023-07-30 07:31:37';99600;;;20;56
30343;BME280;17145;49.902;8.680;'2023-07-30 07:34:04';99600;;;20;57
30343;BME280;17145;49.902;8.680;'2023-07-30 07:36:32';99600;;;20;56
30343;BME280;17145;49.902;8.680;'2023-07-30 07:38:59';99600;;;20;56
30343;BME280;17145;49.902;8.680;'2023-07-30 07:41:27';99600;;;20;56
30343;BME280;17145;49.902;8.680;'2023-07-30 07:43:54';99600;;;20;56
30343;BME280;17145;49.902;8.680;'2023-07-30 07:46:21';99600;;;20;56
30343;BME280;17145;49.902;8.680;'2023-07-30 07:48:49';99600;;;20;56
30343;BME280;17145;49.902;8.680;'2023-07-30 07:51:16';99600;;;20;56
30343;BME280;17145;49.902;8.680;'2023-07-30 07:53:44';99590;;;20;56
30343;BME280;17145;49.902;8.680;'2023-07-30 07:56:11';99600;;;20;56
30343;BME280;17145;49.902;8.680;'2023-07-30 07:58:38';99600;;;20;56
30343;BME280;17145;49.902;8.680;'2023-07-30 08:01:06';99590;;;20;56
30343;BME280;17145;49.902;8.680;'2023-07-30 08:03:33';99590;;;20;55
30343;BME280;17145;49.902;8.680;'2023-07-30 08:06:01';99590;;;20;55
30343;BME280;17145;49.902;8.680;'2023-07-30 08:08:29';99600;;;20;54
30343;BME280;17145;49.902;8.680;'2023-07-30 08:11:00';99600;;;20;54
30343;BME280;17145;49.902;8.680;'2023-07-30 08:13:28';99600;;;20;54
30343;BME280;17145;49.902;8.680;'2023-07-30 08:15:56';99610;;;20;54
30343;BME280;17145;49.902;8.680;'2023-07-30 08:18:23';99600;;;20;53
30343;BME280;17145;49.902;8.680;'2023-07-30 08:20:50';99600;;;20;53
30343;BME280;17145;49.902;8.680;'2023-07-30 08:23:18';99610;;;20;53
30343;BME280;17145;49.902;8.680;'2023-07-30 08:25:45';99620;;;20;53
30343;BME280;17145;49.902;8.680;'2023-07-30 08:28:12';99620;;;21;53
30343;BME280;17145;49.902;8.680;'2023-07-30 08:30:40';99620;;;20;53
30343;BME280;17145;49.902;8.680;'2023-07-30 08:33:07';99620;;;20;52
30343;BME280;17145;49.902;8.680;'2023-07-30 08:35:34';99620;;;21;52
30343;BME280;17145;49.902;8.680;'2023-07-30 08:38:02';99610;;;20;52
30343;BME280;17145;49.902;8.680;'2023-07-30 08:40:29';99610;;;20;52
30343;BME280;17145;49.902;8.680;'2023-07-30 08:42:57';99620;;;21;51
30343;BME280;17145;49.902;8.680;'2023-07-30 08:45:24';99620;;;21;51
30343;BME280;17145;49.902;8.680;'2023-07-30 08:47:51';99620;;;21;51
30343;BME280;17145;49.902;8.680;'2023-07-30 08:50:19';99620;;;21;51
30343;BME280;17145;49.902;8.680;'2023-07-30 08:52:47';99630;;;21;51
30343;BME280;17145;49.902;8.680;'2023-07-30 08:55:14';99630;;;21;50
30343;BME280;17145;49.902;8.680;'2023-07-30 08:57:42';99630;;;21;49
30343;BME280;17145;49.902;8.680;'2023-07-30 09:00:10';99630;;;21;49
30343;BME280;17145;49.902;8.680;'2023-07-30 09:02:37';99630;;;21;50
30343;BME280;17145;49.902;8.680;'2023-07-30 09:05:05';99630;;;21;50
30343;BME280;17145;49.902;8.680;'2023-07-30 09:07:32';99630;;;21;50
30343;BME280;17145;49.902;8.680;'2023-07-30 09:10:00';99640;;;21;50
30343;BME280;17145;49.902;8.680;'2023-07-30 09:12:27';99640;;;21;50
30343;BME280;17145;49.902;8.680;'2023-07-30 09:14:54';99650;;;21;50
30343;BME280;17145;49.902;8.680;'2023-07-30 09:17:22';99650;;;21;50
30343;BME280;17145;49.902;8.680;'2023-07-30 09:19:49';99660;;;21;49
30343;BME280;17145;49.902;8.680;'2023-07-30 09:22:17';99670;;;21;50
30343;BME280;17145;49.902;8.680;'2023-07-30 09:24:44';99680;;;21;51
30343;BME280;17145;49.902;8.680;'2023-07-30 09:27:12';99680;;;21;51
30343;BME280;17145;49.902;8.680;'2023-07-30 09:29:39';99680;;;21;52
30343;BME280;17145;49.902;8.680;'2023-07-30 09:32:07';99680;;;21;53
30343;BME280;17145;49.902;8.680;'2023-07-30 09:34:34';99680;;;21;54
30343;BME280;17145;49.902;8.680;'2023-07-30 09:37:02';99680;;;20;54
30343;BME280;17145;49.902;8.680;'2023-07-30 09:39:29';99680;;;21;55
30343;BME280;17145;49.902;8.680;'2023-07-30 09:41:57';99680;;;21;56
30343;BME280;17145;49.902;8.680;'2023-07-30 09:44:24';99680;;;20;56
30343;BME280;17145;49.902;8.680;'2023-07-30 09:46:52';99680;;;20;57
30343;BME280;17145;49.902;8.680;'2023-07-30 09:49:19';99680;;;20;57
30343;BME280;17145;49.902;8.680;'2023-07-30 09:51:46';99680;;;20;56
30343;BME280;17145;49.902;8.680;'2023-07-30 09:54:14';99670;;;20;56
30343;BME280;17145;49.902;8.680;'2023-07-30 09:56:41';99670;;;20;56
30343;BME280;17145;49.902;8.680;'2023-07-30 09:59:08';99670;;;20;57
30343;BME280;17145;49.902;8.680;'2023-07-30 10:01:36';99670;;;20;56
30343;BME280;17145;49.902;8.680;'2023-07-30 10:04:04';99660;;;20;56
30343;BME280;17145;49.902;8.680;'2023-07-30 10:06:32';99660;;;20;57
30343;BME280;17145;49.902;8.680;'2023-07-30 10:08:59';99660;;;20;56
30343;BME280;17145;49.902;8.680;'2023-07-30 10:11:26';99660;;;20;56
30343;BME280;17145;49.902;8.680;'2023-07-30 10:13:54';99660;;;20;55
30343;BME280;17145;49.902;8.680;'2023-07-30 10:16:21';99660;;;20;54
30343;BME280;17145;49.902;8.680;'2023-07-30 10:18:48';99650;;;20;54
30343;BME280;17145;49.902;8.680;'2023-07-30 10:21:16';99650;;;21;54
30343;BME280;17145;49.902;8.680;'2023-07-30 10:23:43';99640;;;20;53
30343;BME280;17145;49.902;8.680;'2023-07-30 10:26:11';99640;;;20;53
30343;BME280;17145;49.902;8.680;'2023-07-30 10:28:38';99650;;;21;52
30343;BME280;17145;49.902;8.680;'2023-07-30 10:31:05';99650;;;21;52
30343;BME280;17145;49.902;8.680;'2023-07-30 10:33:33';99650;;;21;51
30343;BME280;17145;49.902;8.680;'2023-07-30 10:36:00';99650;;;21;51
30343;BME280;17145;49.902;8.680;'2023-07-30 10:38:29';99650;;;21;52
30343;BME280;17145;49.902;8.680;'2023-07-30 10:40:57';99650;;;21;52
30343;BME280;17145;49.902;8.680;'2023-07-30 10:43:24';99650;;;21;52
30343;BME280;17145;49.902;8.680;'2023-07-30 10:45:52';99650;;;21;50
30343;BME280;17145;49.902;8.680;'2023-07-30 10:48:25';99640;;;22;50
30343;BME280;17145;49.902;8.680;'2023-07-30 10:50:57';99640;;;21;50
30343;BME280;17145;49.902;8.680;'2023-07-30 10:53:25';99640;;;21;50
30343;BME280;17145;49.902;8.680;'2023-07-30 10:55:54';99640;;;21;49
30343;BME280;17145;49.902;8.680;'2023-07-30 10:58:22';99640;;;22;51
30343;BME280;17145;49.902;8.680;'2023-07-30 11:00:53';99630;;;22;50
30343;BME280;17145;49.902;8.680;'2023-07-30 11:03:22';99640;;;22;51
30343;BME280;17145;49.902;8.680;'2023-07-30 11:05:50';99630;;;21;51
30343;BME280;17145;49.902;8.680;'2023-07-30 11:08:18';99630;;;22;51
30343;BME280;17145;49.902;8.680;'2023-07-30 11:10:45';99630;;;22;51
30343;BME280;17145;49.902;8.680;'2023-07-30 11:13:21';99630;;;22;50
30343;BME280;17145;49.902;8.680;'2023-07-30 11:15:49';99630;;;22;51
30343;BME280;17145;49.902;8.680;'2023-07-30 11:18:17';99630;;;21;51
30343;BME280;17145;49.902;8.680;'2023-07-30 11:20:44';99640;;;22;51
30343;BME280;17145;49.902;8.680;'2023-07-30 11:23:12';99640;;;22;52
30343;BME280;17145;49.902;8.680;'2023-07-30 11:25:39';99640;;;21;51
30343;BME280;17145;49.902;8.680;'2023-07-30 11:28:07';99650;;;21;51
30343;BME280;17145;49.902;8.680;'2023-07-30 11:30:35';99650;;;21;52
30343;BME280;17145;49.902;8.680;'2023-07-30 11:33:02';99650;;;21;50
30343;BME280;17145;49.902;8.680;'2023-07-30 11:35:32';99640;;;21;50
30343;BME280;17145;49.902;8.680;'2023-07-30 11:38:02';99690;;;21;49
30343;BME280;17145;49.902;8.680;'2023-07-30 11:40:32';99700;;;20;49
30343;BME280;17145;49.902;8.680;'2023-07-30 11:42:59';99720;;;20;49
30343;BME280;17145;49.902;8.680;'2023-07-30 11:45:27';99730;;;19;50
30343;BME280;17145;49.902;8.680;'2023-07-30 11:47:55';99720;;;19;51
30343;BME280;17145;49.902;8.680;'2023-07-30 11:50:23';99720;;;20;52
30343;BME280;17145;49.902;8.680;'2023-07-30 11:52:50';99730;;;20;51
30343;BME280;17145;49.902;8.680;'2023-07-30 11:55:18';99730;;;19;53
30343;BME280;17145;49.902;8.680;'2023-07-30 11:57:45';99740;;;19;53
30343;BME280;17145;49.902;8.680;'2023-07-30 12:00:13';99740;;;19;53
30343;BME280;17145;49.902;8.680;'2023-07-30 12:02:45';99730;;;19;53
30343;BME280;17145;49.902;8.680;'2023-07-30 12:05:16';99740;;;19;53
30343;BME280;17145;49.902;8.680;'2023-07-30 12:07:49';99740;;;20;53
30343;BME280;17145;49.902;8.680;'2023-07-30 12:10:18';99760;;;19;53
30343;BME280;17145;49.902;8.680;'2023-07-30 12:12:47';99770;;;19;52
30343;BME280;17145;49.902;8.680;'2023-07-30 12:15:19';99770;;;19;52
30343;BME280;17145;49.902;8.680;'2023-07-30 12:17:46';99780;;;19;52
30343;BME280;17145;49.902;8.680;'2023-07-30 12:20:22';99770;;;19;52
30343;BME280;17145;49.902;8.680;'2023-07-30 12:22:52';99780;;;19;51
30343;BME280;17145;49.902;8.680;'2023-07-30 12:25:22';99780;;;19;50
30343;BME280;17145;49.902;8.680;'2023-07-30 12:27:50';99780;;;19;50
30343;BME280;17145;49.902;8.680;'2023-07-30 12:30:19';99790;;;19;49
30343;BME280;17145;49.902;8.680;'2023-07-30 12:32:58';99790;;;19;47
30343;BME280;17145;49.902;8.680;'2023-07-30 12:35:37';99800;;;19;46
30343;BME280;17145;49.902;8.680;'2023-07-30 12:40:58';99800;;;20;45
30343;BME280;17145;49.902;8.680;'2023-07-30 12:43:28';99800;;;20;45
30343;BME280;17145;49.902;8.680;'2023-07-30 12:45:55';99800;;;21;44
30343;BME280;17145;49.902;8.680;'2023-07-30 12:48:31';99810;;;20;44
30343;BME280;17145;49.902;8.680;'2023-07-30 12:51:00';99810;;;21;44
30343;BME280;17145;49.902;8.680;'2023-07-30 12:53:28';99800;;;20;44
30343;BME280;17145;49.902;8.680;'2023-07-30 12:55:58';99810;;;20;43
30343;BME280;17145;49.902;8.680;'2023-07-30 12:58:26';99800;;;21;42
30343;BME280;17145;49.902;8.680;'2023-07-30 13:00:54';99800;;;21;43
30343;BME280;17145;49.902;8.680;'2023-07-30 13:03:24';99810;;;21;41
30343;BME280;17145;49.902;8.680;'2023-07-30 13:05:52';99810;;;21;41
30343;BME280;17145;49.902;8.680;'2023-07-30 13:08:19';99800;;;21;40
30343;BME280;17145;49.902;8.680;'2023-07-30 13:10:47';99810;;;21;40
30343;BME280;17145;49.902;8.680;'2023-07-30 13:13:15';99810;;;21;39
30343;BME280;17145;49.902;8.680;'2023-07-30 13:15:43';99810;;;20;39
30343;BME280;17145;49.902;8.680;'2023-07-30 13:18:12';99810;;;21;38
30343;BME280;17145;49.902;8.680;'2023-07-30 13:20:39';99800;;;21;39
30343;BME280;17145;49.902;8.680;'2023-07-30 13:23:18';99800;;;21;38
30343;BME280;17145;49.902;8.680;'2023-07-30 13:28:20';99800;;;21;38
30343;BME280;17145;49.902;8.680;'2023-07-30 13:30:51';99810;;;22;38
30343;BME280;17145;49.902;8.680;'2023-07-30 13:33:20';99830;;;21;37
30343;BME280;17145;49.902;8.680;'2023-07-30 13:35:47';99820;;;22;36
30343;BME280;17145;49.902;8.680;'2023-07-30 13:38:15';99820;;;21;36
30343;BME280;17145;49.902;8.680;'2023-07-30 13:40:43';99820;;;21;36
30343;BME280;17145;49.902;8.680;'2023-07-30 13:43:11';99820;;;21;37
30343;BME280;17145;49.902;8.680;'2023-07-30 13:45:38';99840;;;21;38
30343;BME280;17145;49.902;8.680;'2023-07-30 13:48:06';99840;;;21;39
30343;BME280;17145;49.902;8.680;'2023-07-30 13:50:43';99860;;;21;39
30343;BME280;17145;49.902;8.680;'2023-07-30 13:53:11';99850;;;21;38
30343;BME280;17145;49.902;8.680;'2023-07-30 13:55:40';99850;;;21;39
30343;BME280;17145;49.902;8.680;'2023-07-30 13:58:08';99850;;;21;38
30343;BME280;17145;49.902;8.680;'2023-07-30 14:00:36';99870;;;20;38
30343;BME280;17145;49.902;8.680;'2023-07-30 14:03:05';99860;;;20;38
30343;BME280;17145;49.902;8.680;'2023-07-30 14:05:35';99870;;;20;39
30343;BME280;17145;49.902;8.680;'2023-07-30 14:08:03';99870;;;20;38
30343;BME280;17145;49.902;8.680;'2023-07-30 14:10:41';99870;;;20;39
30343;BME280;17145;49.902;8.680;'2023-07-30 14:13:12';99880;;;21;38
30343;BME280;17145;49.902;8.680;'2023-07-30 14:15:42';99880;;;21;36
30343;BME280;17145;49.902;8.680;'2023-07-30 14:18:09';99870;;;21;36
30343;BME280;17145;49.902;8.680;'2023-07-30 14:20:36';99880;;;21;34
30343;BME280;17145;49.902;8.680;'2023-07-30 14:23:04';99870;;;21;34
30343;BME280;17145;49.902;8.680;'2023-07-30 14:25:31';99890;;;21;33
30343;BME280;17145;49.902;8.680;'2023-07-30 14:27:59';99900;;;21;33
30343;BME280;17145;49.902;8.680;'2023-07-30 14:30:26';99890;;;20;34
30343;BME280;17145;49.902;8.680;'2023-07-30 14:32:54';99890;;;21;35
30343;BME280;17145;49.902;8.680;'2023-07-30 14:35:21';99900;;;20;35
30343;BME280;17145;49.902;8.680;'2023-07-30 14:37:49';99890;;;20;35
30343;BME280;17145;49.902;8.680;'2023-07-30 14:40:16';99900;;;21;35
30343;BME280;17145;49.902;8.680;'2023-07-30 14:42:44';99890;;;21;35
30343;BME280;17145;49.902;8.680;'2023-07-30 14:45:11';99890;;;21;35
30343;BME280;17145;49.902;8.680;'2023-07-30 14:47:40';99890;;;22;34
30343;BME280;17145;49.902;8.680;'2023-07-30 14:50:08';99890;;;22;34
30343;BME280;17145;49.902;8.680;'2023-07-30 14:52:35';99890;;;23;31
30343;BME280;17145;49.902;8.680;'2023-07-30 14:55:04';99880;;;23;30
30343;BME280;17145;49.902;8.680;'2023-07-30 14:57:31';99900;;;22;29
30343;BME280;17145;49.902;8.680;'2023-07-30 14:59:58';99890;;;23;30
30343;BME280;17145;49.902;8.680;'2023-07-30 15:02:25';99880;;;22;30
30343;BME280;17145;49.902;8.680;'2023-07-30 15:04:53';99890;;;22;31
30343;BME280;17145;49.902;8.680;'2023-07-30 15:07:20';99890;;;21;31
30343;BME280;17145;49.902;8.680;'2023-07-30 15:09:48';99900;;;21;31
30343;BME280;17145;49.902;8.680;'2023-07-30 15:12:15';99900;;;22;31
30343;BME280;17145;49.902;8.680;'2023-07-30 15:14:42';99900;;;22;30
30343;BME280;17145;49.902;8.680;'2023-07-30 15:17:10';99890;;;22;30
30343;BME280;17145;49.902;8.680;'2023-07-30 15:19:37';99890;;;22;31
30343;BME280;17145;49.902;8.680;'2023-07-30 15:22:05';99890;;;22;31
30343;BME280;17145;49.902;8.680;'2023-07-30 15:24:32';99900;;;22;31
30343;BME280;17145;49.902;8.680;'2023-07-30 15:27:00';99900;;;21;31
30343;BME280;17145;49.902;8.680;'2023-07-30 15:29:27';99900;;;22;31
30343;BME280;17145;49.902;8.680;'2023-07-30 15:31:54';99890;;;21;31
30343;BME280;17145;49.902;8.680;'2023-07-30 15:34:22';99890;;;21;31
30343;BME280;17145;49.902;8.680;'2023-07-30 15:36:49';99880;;;22;32
30343;BME280;17145;49.902;8.680;'2023-07-30 15:39:17';99890;;;23;31
30343;BME280;17145;49.902;8.680;'2023-07-30 15:41:44';99880;;;23;29
30343;BME280;17145;49.902;8.680;'2023-07-30 15:44:11';99890;;;23;28
30343;BME280;17145;49.902;8.680;'2023-07-30 15:46:39';99890;;;23;28
30343;BME280;17145;49.902;8.680;'2023-07-30 15:49:06';99910;;;23;29
30343;BME280;17145;49.902;8.680;'2023-07-30 15:51:34';99930;;;23;29
30343;BME280;17145;49.902;8.680;'2023-07-30 15:54:02';99910;;;22;30
30343;BME280;17145;49.902;8.680;'2023-07-30 15:56:29';99900;;;22;30
30343;BME280;17145;49.902;8.680;'2023-07-30 15:58:57';99900;;;22;30
30343;BME280;17145;49.902;8.680;'2023-07-30 16:01:24';99900;;;21;31
30343;BME280;17145;49.902;8.680;'2023-07-30 16:03:51';99900;;;21;31
30343;BME280;17145;49.902;8.680;'2023-07-30 16:06:19';99900;;;22;32
30343;BME280;17145;49.902;8.680;'2023-07-30 16:08:46';99900;;;22;31
30343;BME280;17145;49.902;8.680;'2023-07-30 16:11:13';99890;;;22;31
30343;BME280;17145;49.902;8.680;'2023-07-30 16:13:41';99900;;;22;31
30343;BME280;17145;49.902;8.680;'2023-07-30 16:16:08';99900;;;22;30
30343;BME280;17145;49.902;8.680;'2023-07-30 16:18:36';99900;;;22;31
30343;BME280;17145;49.902;8.680;'2023-07-30 16:21:03';99900;;;22;31
30343;BME280;17145;49.902;8.680;'2023-07-30 16:23:31';99900;;;22;31
30343;BME280;17145;49.902;8.680;'2023-07-30 16:25:58';99900;;;22;31
30343;BME280;17145;49.902;8.680;'2023-07-30 16:28:26';99890;;;22;30